createdAt,value
2019-01-25T08:46:05.155Z,43.78
2019-01-25T08:48:35.496Z,45.48
2019-01-25T08:51:04.588Z,40.98
2019-01-25T08:53:35.617Z,44.35
2019-01-25T08:56:12.822Z,43.73
2019-01-25T10:23:11.241Z,34.45
2019-01-25T10:31:53.429Z,34.38
2019-01-25T10:34:23.333Z,30.55
2019-01-25T10:37:02.928Z,31.68
2019-01-25T10:49:45.304Z,36.90
2019-01-25T10:52:18.455Z,35.75
2019-01-25T10:54:48.450Z,29.90
2019-01-25T10:57:17.762Z,38.67
2019-01-25T10:59:57.138Z,39.85
2019-01-25T11:02:25.813Z,36.65
2019-01-25T11:04:57.426Z,35.40
2019-01-25T11:07:27.559Z,45.88
2019-01-25T11:09:58.972Z,38.50
2019-01-25T11:12:34.821Z,37.45
2019-01-25T11:15:02.473Z,30.48
2019-01-25T11:30:48.881Z,36.70
2019-01-25T11:40:17.832Z,28.70
2019-01-25T11:53:13.322Z,31.12
2019-01-25T11:55:42.078Z,29.50
2019-01-25T12:01:13.236Z,29.60
2019-01-25T12:03:42.441Z,34.38
2019-01-25T12:06:13.792Z,40.00
2019-01-25T12:08:46.104Z,29.67
2019-01-25T12:11:33.581Z,32.35
2019-01-25T12:14:06.604Z,38.65
2019-01-25T12:16:35.276Z,35.43
2019-01-25T12:19:06.300Z,21.15
2019-01-25T12:21:34.937Z,32.63
2019-01-25T12:24:03.554Z,32.73
2019-01-25T12:26:33.837Z,34.30
2019-01-25T12:29:04.238Z,32.70
2019-01-25T12:31:34.879Z,33.15
2019-01-25T12:34:08.829Z,35.45
2019-01-25T12:36:37.428Z,31.93
2019-01-25T12:39:08.152Z,37.75
2019-01-25T12:45:41.580Z,24.05
2019-01-25T12:48:10.447Z,30.90
2019-01-25T12:54:13.027Z,25.37
2019-01-25T12:56:59.366Z,22.98
2019-01-25T13:06:43.349Z,27.87
2019-01-25T13:09:15.945Z,18.07
2019-01-25T13:14:38.454Z,29.90
2019-01-25T13:17:07.160Z,30.30
2019-01-25T13:19:38.484Z,23.18
2019-01-25T13:22:07.196Z,28.67
2019-01-25T13:24:36.407Z,25.82
2019-01-25T13:27:06.403Z,21.65
2019-01-25T13:29:35.035Z,22.90
2019-01-25T13:32:04.995Z,21.37
2019-01-25T13:34:33.579Z,20.57
2019-01-25T13:37:02.143Z,19.45
2019-01-25T13:39:30.707Z,21.33
2019-01-25T13:42:04.061Z,19.87
2019-01-25T13:48:13.229Z,22.07
2019-01-25T13:50:44.121Z,19.50
2019-01-25T13:53:12.795Z,20.35
2019-01-25T13:59:08.585Z,22.65
2019-01-25T14:18:46.608Z,23.90
2019-01-25T14:21:15.771Z,17.80
2019-01-25T14:23:47.733Z,24.72
2019-01-25T14:26:16.498Z,23.07
2019-01-25T14:28:45.143Z,21.02
2019-01-25T14:31:13.744Z,22.50
2019-01-25T14:33:42.406Z,20.72
2019-01-25T14:36:14.965Z,18.87
2019-01-25T14:38:43.938Z,18.42
2019-01-25T14:41:13.251Z,16.10
2019-01-25T14:43:41.913Z,19.27
2019-01-25T14:49:03.232Z,23.40
2019-01-25T14:51:31.976Z,25.37
2019-01-25T14:54:00.711Z,22.42
2019-01-25T14:56:30.176Z,18.55
2019-01-25T14:59:00.835Z,13.72
2019-01-25T15:17:26.304Z,14.18
2019-01-25T15:19:55.531Z,9.15
2019-01-25T15:25:55.523Z,17.75
2019-01-25T15:28:25.474Z,22.22
2019-01-25T15:48:12.433Z,12.75
